Time;durP1;ratioP1;P1;durP2;ratioP2;P2;SDS_P1;SDS_P2;PMS_P1;PMS_P2;Temp;Humidity;BMP_temperature;BMP_pressure;BME280_temperature;BME280_humidity;BME280_pressure;Samples;Min_cycle;Max_cycle;Signal;HPM_P1;HPM_P2
2021/04/27 00:01:42;;;;;;;7.93;6.07;;;8.90;90.90;;;;;;5012392;28;20503;-52
2021/04/27 00:04:10;;;;;;;8.50;6.20;;;8.90;91.40;;;;;;5012376;28;20453;-52
2021/04/27 00:06:36;;;;;;;8.33;6.30;;;9.00;91.60;;;;;;5011886;28;20476;-52
2021/04/27 00:09:04;;;;;;;13.30;6.90;;;9.00;90.80;;;;;;5011917;28;20449;-52
2021/04/27 00:11:30;;;;;;;8.40;6.27;;;8.80;90.90;;;;;;4994756;28;20458;-52
2021/04/27 00:13:57;;;;;;;10.73;6.23;;;8.90;90.40;;;;;;5012264;28;20483;-52
2021/04/27 00:16:24;;;;;;;9.90;5.83;;;8.90;90.30;;;;;;5012058;28;20444;-52
2021/04/27 00:18:50;;;;;;;10.27;5.93;;;8.80;90.40;;;;;;5011849;28;20462;-52
2021/04/27 00:21:18;;;;;;;12.33;5.50;;;8.90;90.40;;;;;;5012198;28;20460;-52
2021/04/27 00:23:44;;;;;;;7.43;5.60;;;9.00;90.50;;;;;;5011794;28;20449;-52
2021/04/27 00:26:11;;;;;;;9.00;6.00;;;9.10;90.40;;;;;;5011744;28;20511;-53
2021/04/27 00:28:37;;;;;;;6.93;5.63;;;9.00;88.80;;;;;;5011127;28;20477;-52
2021/04/27 00:31:04;;;;;;;7.90;5.90;;;9.10;88.90;;;;;;5011986;28;20488;-52
2021/04/27 00:33:30;;;;;;;6.50;5.50;;;9.20;88.30;;;;;;5011821;28;20504;-52
2021/04/27 00:35:57;;;;;;;8.10;6.50;;;9.20;88.40;;;;;;5011932;28;20453;-52
2021/04/27 00:38:24;;;;;;;9.50;6.13;;;9.20;88.10;;;;;;5011157;28;20480;-52
2021/04/27 00:40:51;;;;;;;8.60;5.40;;;9.20;88.30;;;;;;5010842;28;20445;-53
2021/04/27 00:43:17;;;;;;;8.30;6.07;;;9.20;88.50;;;;;;5011780;28;20453;-52
2021/04/27 00:45:44;;;;;;;7.43;5.50;;;9.10;89.10;;;;;;5011381;28;20508;-52
2021/04/27 00:48:10;;;;;;;8.70;6.43;;;9.10;89.00;;;;;;5011157;28;20583;-52
2021/04/27 00:50:40;;;;;;;9.30;5.37;;;9.20;89.00;;;;;;5011372;28;20484;-52
2021/04/27 00:53:08;;;;;;;7.80;6.17;;;9.10;89.40;;;;;;5011373;28;20453;-52
2021/04/27 00:55:36;;;;;;;8.80;5.87;;;9.10;89.40;;;;;;5010871;28;20480;-52
2021/04/27 00:58:03;;;;;;;10.60;5.80;;;9.00;89.90;;;;;;5011408;28;20469;-52
2021/04/27 01:00:32;;;;;;;8.20;5.87;;;9.00;90.40;;;;;;5011296;28;20446;-52
2021/04/27 01:02:59;;;;;;;9.60;6.10;;;8.90;91.10;;;;;;5011133;28;20449;-52
2021/04/27 01:05:28;;;;;;;8.67;6.00;;;8.90;91.00;;;;;;5011365;28;20457;-52
2021/04/27 01:08:02;;;;;;;10.10;6.50;;;8.90;91.00;;;;;;5011541;28;20500;-52
2021/04/27 01:10:35;;;;;;;9.40;6.37;;;8.90;90.80;;;;;;5011093;28;20567;-53
2021/04/27 01:13:09;;;;;;;10.13;6.70;;;8.80;91.50;;;;;;5003835;28;20483;-53
2021/04/27 01:15:36;;;;;;;10.20;6.50;;;8.60;91.90;;;;;;5010983;28;20954;-52
2021/04/27 01:18:03;;;;;;;11.27;6.50;;;8.60;92.00;;;;;;5023844;23;20499;-49
2021/04/27 01:20:42;;;;;;;10.60;6.40;;;8.70;91.90;;;;;;5011242;28;20457;-50
2021/04/27 01:23:32;;;;;;;10.97;6.70;;;8.70;92.40;;;;;;5011593;28;20472;-50
2021/04/27 01:26:04;;;;;;;11.97;6.40;;;8.60;92.80;;;;;;5010801;28;20453;-50
2021/04/27 01:28:33;;;;;;;10.97;7.50;;;8.40;93.50;;;;;;5026114;28;20852;-49
2021/04/27 01:31:01;;;;;;;10.10;6.53;;;8.30;94.10;;;;;;5031916;28;20487;-50
2021/04/27 01:33:29;;;;;;;11.37;6.40;;;8.20;94.50;;;;;;5030970;28;20473;-50
2021/04/27 01:35:57;;;;;;;10.60;7.00;;;8.00;94.90;;;;;;5031526;28;20462;-50
2021/04/27 01:38:24;;;;;;;9.17;6.83;;;7.90;95.40;;;;;;5031282;28;21023;-50
2021/04/27 01:40:52;;;;;;;12.80;7.50;;;7.90;95.50;;;;;;5029636;28;20453;-50
2021/04/27 01:43:19;;;;;;;11.30;6.70;;;7.80;96.00;;;;;;5032155;28;20448;-50
2021/04/27 01:45:48;;;;;;;14.47;7.40;;;7.80;96.10;;;;;;5035071;28;20482;-49
2021/04/27 01:48:15;;;;;;;11.00;6.70;;;7.70;95.90;;;;;;5034695;28;20476;-49
2021/04/27 01:50:42;;;;;;;10.50;6.37;;;7.90;95.80;;;;;;5035654;28;20484;-50
2021/04/27 01:53:11;;;;;;;12.23;7.13;;;8.10;95.30;;;;;;5035070;28;20456;-50
2021/04/27 01:55:38;;;;;;;10.50;6.83;;;8.10;95.00;;;;;;5035237;28;20452;-50
2021/04/27 01:58:05;;;;;;;11.00;6.93;;;8.20;94.90;;;;;;5034757;28;20469;-50
2021/04/27 02:00:31;;;;;;;10.67;6.97;;;8.20;94.90;;;;;;5034887;28;20453;-49
2021/04/27 02:02:59;;;;;;;11.53;6.63;;;8.10;94.70;;;;;;5034680;28;20448;-50
2021/04/27 02:05:26;;;;;;;12.00;6.87;;;8.10;94.90;;;;;;5035069;28;20475;-49
2021/04/27 02:07:52;;;;;;;9.40;6.00;;;8.20;94.70;;;;;;5035569;28;20471;-49
2021/04/27 02:10:19;;;;;;;9.60;6.80;;;8.30;94.40;;;;;;5034767;28;20491;-50
2021/04/27 02:12:47;;;;;;;10.37;5.53;;;8.50;94.00;;;;;;5034471;28;20515;-50
2021/04/27 02:15:16;;;;;;;9.67;6.27;;;8.50;94.00;;;;;;5034435;28;20455;-49
2021/04/27 02:17:47;;;;;;;10.50;6.37;;;8.50;93.90;;;;;;5034129;28;20479;-50
2021/04/27 02:20:15;;;;;;;8.53;6.47;;;8.50;93.80;;;;;;5034903;28;20474;-51
2021/04/27 02:22:44;;;;;;;10.10;6.33;;;8.50;94.00;;;;;;5034313;28;20958;-49
2021/04/27 02:25:13;;;;;;;10.80;6.97;;;8.50;94.00;;;;;;5034672;28;20499;-50
2021/04/27 02:27:44;;;;;;;9.00;6.40;;;8.50;94.60;;;;;;5033868;28;20551;-50
2021/04/27 02:30:13;;;;;;;8.23;6.33;;;8.50;94.70;;;;;;5034429;28;20560;-49
2021/04/27 02:32:44;;;;;;;10.03;6.73;;;8.50;94.60;;;;;;5034647;28;20451;-49
2021/04/27 02:35:12;;;;;;;10.77;6.80;;;8.50;94.90;;;;;;5034521;28;20447;-49
2021/04/27 02:37:44;;;;;;;12.33;6.50;;;8.40;95.10;;;;;;5033549;28;20475;-49
2021/04/27 02:40:13;;;;;;;13.50;7.07;;;8.40;95.10;;;;;;5034565;28;20448;-50
2021/04/27 02:42:41;;;;;;;12.37;6.97;;;8.30;95.20;;;;;;5034319;28;20458;-50
2021/04/27 02:45:09;;;;;;;8.93;6.47;;;8.00;96.00;;;;;;5027065;28;20464;-50
2021/04/27 02:47:36;;;;;;;11.83;6.80;;;8.00;96.10;;;;;;5034083;28;20479;-50
2021/04/27 02:50:04;;;;;;;9.47;7.03;;;8.10;95.80;;;;;;5033565;28;20483;-51
2021/04/27 02:52:31;;;;;;;11.30;7.70;;;8.20;96.20;;;;;;5034040;28;20515;-48
2021/04/27 02:54:58;;;;;;;9.93;6.80;;;8.00;96.20;;;;;;5033999;28;20452;-50
2021/04/27 02:57:24;;;;;;;10.30;7.27;;;7.80;96.60;;;;;;5033539;28;21005;-49
2021/04/27 02:59:51;;;;;;;10.60;7.00;;;7.80;96.50;;;;;;5033984;28;20444;-49
2021/04/27 03:02:18;;;;;;;10.07;6.93;;;7.80;96.90;;;;;;5034044;28;20449;-49
2021/04/27 03:04:45;;;;;;;14.40;8.20;;;7.90;96.80;;;;;;5033872;28;21012;-50
2021/04/27 03:07:11;;;;;;;9.40;7.03;;;7.40;97.00;;;;;;5033812;28;20472;-49
2021/04/27 03:09:38;;;;;;;12.20;7.23;;;6.90;97.90;;;;;;5033799;28;20487;-49
2021/04/27 03:12:06;;;;;;;12.53;7.63;;;6.70;98.40;;;;;;5034726;28;20451;-50
2021/04/27 03:14:33;;;;;;;14.97;8.70;;;6.70;99.00;;;;;;5033713;28;20446;-50
2021/04/27 03:16:59;;;;;;;13.40;7.77;;;6.60;99.00;;;;;;5033556;28;20453;-50
2021/04/27 03:19:26;;;;;;;16.07;7.00;;;6.60;98.90;;;;;;5033361;28;20452;-49
2021/04/27 03:21:52;;;;;;;11.80;7.03;;;6.80;98.70;;;;;;5033433;28;20468;-50
2021/04/27 03:24:19;;;;;;;10.80;7.30;;;7.10;98.30;;;;;;5033641;28;20441;-50
2021/04/27 03:26:45;;;;;;;10.30;7.00;;;7.30;98.10;;;;;;5033281;28;20884;-48
2021/04/27 03:29:13;;;;;;;14.00;7.47;;;7.40;98.10;;;;;;5033179;28;20506;-49
2021/04/27 03:31:39;;;;;;;12.93;7.60;;;7.30;97.70;;;;;;5033495;28;20444;-50
2021/04/27 03:34:05;;;;;;;12.30;8.07;;;7.40;97.70;;;;;;5034434;28;20440;-50
2021/04/27 03:36:32;;;;;;;12.00;7.43;;;7.40;97.60;;;;;;5048229;28;20523;-50
2021/04/27 03:38:59;;;;;;;10.93;6.90;;;7.40;97.60;;;;;;5040189;28;20519;-49
2021/04/27 03:41:26;;;;;;;11.60;6.87;;;7.30;97.60;;;;;;5045424;28;20456;-49
2021/04/27 03:43:52;;;;;;;14.73;7.07;;;7.50;97.40;;;;;;5035118;28;20449;-50
2021/04/27 03:46:20;;;;;;;12.27;6.47;;;7.80;96.80;;;;;;5038525;28;20592;-50
2021/04/27 03:48:46;;;;;;;11.43;7.10;;;7.60;96.90;;;;;;5037499;28;20468;-50
2021/04/27 03:51:13;;;;;;;10.57;6.93;;;7.50;97.10;;;;;;5033837;28;20503;-50
2021/04/27 03:53:39;;;;;;;11.67;7.40;;;7.50;97.00;;;;;;5032466;28;20949;-50
2021/04/27 03:56:06;;;;;;;16.13;7.40;;;7.60;97.00;;;;;;5034441;28;20449;-50
2021/04/27 03:58:33;;;;;;;12.67;7.33;;;7.50;97.00;;;;;;5047385;28;20753;-50
2021/04/27 04:00:59;;;;;;;10.00;7.10;;;7.30;98.00;;;;;;5050822;28;20447;-49
2021/04/27 04:03:26;;;;;;;11.13;7.20;;;7.30;98.30;;;;;;5052243;28;20452;-50
2021/04/27 04:05:53;;;;;;;10.17;7.10;;;7.40;97.90;;;;;;5052419;28;20455;-50
2021/04/27 04:08:19;;;;;;;14.10;8.30;;;7.50;97.90;;;;;;5049665;28;20479;-50
2021/04/27 04:10:46;;;;;;;12.90;7.57;;;7.10;98.50;;;;;;5031694;28;20540;-50
2021/04/27 04:13:13;;;;;;;10.13;7.40;;;6.70;99.30;;;;;;5032532;28;20460;-50
2021/04/27 04:15:40;;;;;;;11.60;7.60;;;6.60;99.40;;;;;;5017666;28;20453;-50
2021/04/27 04:18:06;;;;;;;11.80;7.17;;;6.60;98.90;;;;;;5020654;28;20521;-49
2021/04/27 04:20:34;;;;;;;11.70;7.50;;;6.70;99.00;;;;;;5032500;28;20444;-50
2021/04/27 04:23:01;;;;;;;13.67;7.30;;;6.60;99.30;;;;;;5032601;28;20935;-50
2021/04/27 04:25:27;;;;;;;11.27;7.30;;;6.60;99.10;;;;;;5032238;28;20461;-50
2021/04/27 04:27:54;;;;;;;13.97;8.10;;;6.80;98.60;;;;;;5031426;28;20476;-50
2021/04/27 04:30:23;;;;;;;17.20;7.60;;;7.00;98.30;;;;;;5031965;28;20476;-50
2021/04/27 04:32:50;;;;;;;18.23;7.43;;;7.10;98.10;;;;;;5032077;28;20875;-50
2021/04/27 04:35:19;;;;;;;12.03;7.50;;;7.00;98.20;;;;;;5032140;28;20477;-50
2021/04/27 04:37:47;;;;;;;13.50;8.13;;;6.70;98.60;;;;;;5031596;28;20470;-50
2021/04/27 04:40:15;;;;;;;11.50;7.60;;;6.70;98.90;;;;;;5032166;28;20445;-50
2021/04/27 04:42:45;;;;;;;12.50;6.97;;;6.90;98.60;;;;;;5031937;28;20456;-49
2021/04/27 04:45:14;;;;;;;12.70;7.90;;;7.10;98.30;;;;;;5031399;28;20969;-49
2021/04/27 04:47:43;;;;;;;11.93;7.00;;;7.20;98.10;;;;;;5031685;28;20476;-50
2021/04/27 04:50:12;;;;;;;13.00;6.80;;;7.30;98.00;;;;;;5031790;28;20511;-50
2021/04/27 04:52:39;;;;;;;11.97;7.90;;;7.40;97.90;;;;;;5031830;28;20456;-50
2021/04/27 04:55:08;;;;;;;11.90;7.07;;;7.10;98.40;;;;;;5031881;28;20499;-50
2021/04/27 04:57:38;;;;;;;11.93;7.50;;;7.00;98.50;;;;;;5032077;28;21017;-49
2021/04/27 05:00:06;;;;;;;13.03;7.13;;;6.80;99.10;;;;;;5031687;28;20923;-50
2021/04/27 05:02:33;;;;;;;13.27;7.97;;;6.80;99.20;;;;;;5027188;28;20453;-49
2021/04/27 05:04:59;;;;;;;11.60;7.60;;;6.70;99.50;;;;;;5031450;28;20453;-49
2021/04/27 05:07:27;;;;;;;13.23;7.70;;;6.80;99.50;;;;;;5031454;28;20895;-50
2021/04/27 05:09:53;;;;;;;17.07;7.13;;;7.00;98.90;;;;;;5033703;28;20476;-49
2021/04/27 05:12:21;;;;;;;11.17;6.93;;;7.30;98.40;;;;;;5031049;28;20454;-49
2021/04/27 05:14:47;;;;;;;13.10;8.67;;;7.90;97.90;;;;;;5034364;28;20449;-49
2021/04/27 05:17:16;;;;;;;12.97;7.73;;;8.50;96.30;;;;;;5037854;28;20530;-50
2021/04/27 05:19:43;;;;;;;13.53;7.70;;;8.90;95.90;;;;;;5034634;28;20444;-50
2021/04/27 05:22:10;;;;;;;14.00;8.20;;;10.00;93.80;;;;;;5046935;28;20506;-50
2021/04/27 05:24:38;;;;;;;13.73;8.00;;;10.60;92.70;;;;;;5031088;28;20957;-50
2021/04/27 05:27:07;;;;;;;10.67;7.60;;;11.30;92.10;;;;;;5033689;28;20738;-50
2021/04/27 05:29:35;;;;;;;14.60;7.80;;;12.20;90.50;;;;;;5031010;28;20826;-50
2021/04/27 05:32:02;;;;;;;12.07;6.93;;;12.50;89.80;;;;;;5031311;28;20456;-51
2021/04/27 05:34:28;;;;;;;10.90;7.53;;;13.10;88.80;;;;;;5031265;28;20453;-50
2021/04/27 05:36:55;;;;;;;13.40;7.50;;;13.20;87.00;;;;;;5031499;28;20847;-50
2021/04/27 05:39:22;;;;;;;9.60;7.37;;;13.60;86.30;;;;;;5031176;28;20453;-50
2021/04/27 05:41:49;;;;;;;12.73;7.27;;;13.40;85.20;;;;;;5030250;28;20457;-50
2021/04/27 05:44:15;;;;;;;9.00;7.10;;;14.10;84.20;;;;;;5031275;28;20461;-51
2021/04/27 05:46:43;;;;;;;11.23;7.40;;;13.80;85.40;;;;;;5031394;28;20939;-50
2021/04/27 05:49:10;;;;;;;11.60;8.00;;;13.20;84.60;;;;;;5031073;28;20504;-50
2021/04/27 05:51:36;;;;;;;9.83;7.47;;;13.60;84.60;;;;;;5031379;28;20487;-50
2021/04/27 05:54:04;;;;;;;15.77;7.57;;;13.50;83.80;;;;;;5030627;28;21000;-50
2021/04/27 05:56:30;;;;;;;11.03;7.37;;;13.70;84.70;;;;;;5031245;28;20444;-50
2021/04/27 05:58:56;;;;;;;11.03;7.70;;;13.20;84.40;;;;;;5030823;28;20480;-50
2021/04/27 06:01:23;;;;;;;15.23;8.23;;;12.60;86.60;;;;;;5031376;28;20440;-50
2021/04/27 06:03:51;;;;;;;15.50;7.70;;;12.10;88.00;;;;;;5031328;28;20793;-50
2021/04/27 06:06:17;;;;;;;12.77;7.60;;;11.60;89.60;;;;;;5031190;28;20456;-50
2021/04/27 06:08:44;;;;;;;13.00;8.00;;;11.70;90.50;;;;;;5030919;28;20469;-50
2021/04/27 06:11:11;;;;;;;15.37;8.30;;;12.00;89.80;;;;;;5037445;28;20573;-50
2021/04/27 06:13:37;;;;;;;15.03;7.80;;;11.40;90.90;;;;;;5030509;28;20962;-50
2021/04/27 06:16:05;;;;;;;9.67;7.27;;;12.00;90.00;;;;;;5030952;28;20448;-50
2021/04/27 06:18:32;;;;;;;11.40;7.10;;;11.90;90.40;;;;;;5030806;28;20480;-51
2021/04/27 06:21:00;;;;;;;10.20;7.53;;;12.30;89.20;;;;;;5031073;28;20452;-50
2021/04/27 06:23:26;;;;;;;11.90;7.90;;;13.00;88.00;;;;;;5031336;28;20509;-51
2021/04/27 06:25:53;;;;;;;10.90;7.80;;;13.70;86.60;;;;;;5031868;28;20806;-50
2021/04/27 06:28:20;;;;;;;9.03;7.30;;;14.20;86.10;;;;;;5030645;28;20472;-51
2021/04/27 06:30:49;;;;;;;10.00;7.37;;;15.00;82.70;;;;;;5021987;28;20480;-51
2021/04/27 06:33:16;;;;;;;13.90;7.50;;;15.10;82.20;;;;;;5025876;28;20446;-51
2021/04/27 06:35:43;;;;;;;11.00;8.00;;;15.00;82.10;;;;;;5031195;28;20460;-50
2021/04/27 06:38:16;;;;;;;14.40;8.00;;;14.40;83.30;;;;;;5034859;28;20559;-51
2021/04/27 06:40:43;;;;;;;10.47;7.20;;;14.40;84.30;;;;;;5034316;28;20449;-50
2021/04/27 06:43:09;;;;;;;11.03;7.30;;;14.00;86.60;;;;;;5037647;28;20495;-51
2021/04/27 06:45:36;;;;;;;13.13;7.77;;;14.60;85.00;;;;;;5033261;28;20463;-50
2021/04/27 06:48:04;;;;;;;10.23;7.57;;;14.40;84.70;;;;;;5033640;28;20491;-50
2021/04/27 06:50:31;;;;;;;11.10;6.83;;;15.40;82.60;;;;;;5033890;28;20480;-51
2021/04/27 06:52:58;;;;;;;13.00;7.53;;;15.90;81.30;;;;;;5033935;28;20449;-51
2021/04/27 06:55:25;;;;;;;8.63;6.77;;;15.90;80.10;;;;;;5040244;28;20474;-51
2021/04/27 06:57:52;;;;;;;8.87;7.30;;;16.30;78.20;;;;;;5049397;28;20475;-51
2021/04/27 07:00:19;;;;;;;10.77;7.60;;;16.20;78.00;;;;;;5045805;28;20444;-51
2021/04/27 07:02:46;;;;;;;9.30;7.30;;;16.50;76.10;;;;;;5033311;28;20954;-50
2021/04/27 07:05:13;;;;;;;8.97;7.13;;;16.40;76.70;;;;;;5035612;28;20483;-51
2021/04/27 07:07:39;;;;;;;16.60;6.60;;;16.90;76.70;;;;;;5033624;28;20530;-51
2021/04/27 07:10:07;;;;;;;9.50;6.97;;;18.00;75.50;;;;;;5033594;28;21001;-51
2021/04/27 07:12:34;;;;;;;9.77;6.90;;;18.40;73.10;;;;;;5033811;28;20445;-51
2021/04/27 07:15:00;;;;;;;10.93;7.30;;;18.70;74.90;;;;;;5033735;28;20459;-51
2021/04/27 07:17:27;;;;;;;11.53;7.47;;;18.10;73.30;;;;;;5051233;23;21418;-55
2021/04/27 07:19:55;;;;;;;9.10;6.57;;;17.50;75.00;;;;;;5011041;28;20959;-55
2021/04/27 07:22:22;;;;;;;9.33;7.40;;;17.80;73.20;;;;;;5013385;28;20456;-54
2021/04/27 07:24:48;;;;;;;10.07;7.03;;;17.60;75.60;;;;;;5013300;28;20456;-54
2021/04/27 07:27:15;;;;;;;10.13;7.20;;;17.60;75.20;;;;;;5014298;28;20453;-54
2021/04/27 07:29:42;;;;;;;10.77;7.23;;;18.30;73.00;;;;;;5032572;28;20456;-54
2021/04/27 07:32:10;;;;;;;10.50;7.03;;;17.90;75.50;;;;;;5033140;28;20445;-54
2021/04/27 07:34:37;;;;;;;12.77;7.83;;;16.10;79.90;;;;;;5032535;28;20499;-54
2021/04/27 07:37:03;;;;;;;11.05;7.05;;;15.70;79.30;;;;;;5029488;28;20517;-54
2021/04/27 07:39:30;;;;;;;8.30;7.37;;;16.00;79.30;;;;;;5011835;28;20585;-54
2021/04/27 07:41:56;;;;;;;9.20;7.93;;;17.20;75.60;;;;;;5011978;28;20457;-54
2021/04/27 07:44:22;;;;;;;9.70;6.33;;;18.30;74.50;;;;;;5012532;28;20524;-54
2021/04/27 07:46:50;;;;;;;8.33;6.80;;;18.80;73.20;;;;;;5012854;28;20453;-54
2021/04/27 07:49:17;;;;;;;7.53;6.73;;;18.80;72.60;;;;;;5012381;28;20516;-54
2021/04/27 07:51:44;;;;;;;7.63;6.87;;;19.40;71.70;;;;;;5031573;28;20488;-54
2021/04/27 07:54:10;;;;;;;7.40;6.53;;;19.30;71.30;;;;;;5030832;28;20519;-54
2021/04/27 07:56:37;;;;;;;8.77;6.43;;;18.60;72.00;;;;;;5045435;28;20456;-54
2021/04/27 07:59:05;;;;;;;14.57;7.63;;;19.20;73.40;;;;;;5031983;28;20468;-54
2021/04/27 08:01:33;;;;;;;9.10;7.53;;;18.60;74.10;;;;;;5043580;28;20444;-54
2021/04/27 08:04:01;;;;;;;9.30;7.17;;;17.80;74.40;;;;;;5035180;28;20447;-54
2021/04/27 08:06:27;;;;;;;12.13;7.13;;;17.50;74.90;;;;;;5036195;28;20729;-54
2021/04/27 08:08:54;;;;;;;14.03;7.00;;;17.70;73.20;;;;;;5036641;28;20832;-55
2021/04/27 08:11:21;;;;;;;11.47;7.90;;;18.30;72.10;;;;;;5045220;28;20479;-54
2021/04/27 08:13:48;;;;;;;7.87;6.53;;;18.30;76.50;;;;;;5041980;28;20452;-54
2021/04/27 08:16:15;;;;;;;7.67;6.87;;;18.30;74.10;;;;;;5031687;28;20453;-53
2021/04/27 08:18:41;;;;;;;9.70;7.50;;;15.90;79.80;;;;;;5032000;28;20483;-53
2021/04/27 08:21:11;;;;;;;12.63;7.20;;;15.10;81.60;;;;;;5035428;28;20452;-54
2021/04/27 08:23:38;;;;;;;7.80;6.83;;;16.10;80.10;;;;;;5031642;28;20444;-54
2021/04/27 08:26:07;;;;;;;9.87;7.33;;;16.50;81.90;;;;;;5017875;28;20444;-54
2021/04/27 08:28:33;;;;;;;13.80;6.70;;;15.90;80.20;;;;;;5031401;28;20526;-53
2021/04/27 08:31:01;;;;;;;8.07;6.60;;;17.00;77.40;;;;;;5030971;28;20487;-53
2021/04/27 08:33:28;;;;;;;8.40;6.80;;;18.10;74.80;;;;;;5031553;28;20456;-54
2021/04/27 08:35:54;;;;;;;8.67;7.00;;;17.20;79.30;;;;;;5031527;28;20445;-54
2021/04/27 08:38:22;;;;;;;11.00;6.83;;;16.10;81.50;;;;;;5031045;28;20534;-53
2021/04/27 08:40:49;;;;;;;10.03;7.50;;;15.50;80.90;;;;;;5031346;28;20452;-54
2021/04/27 08:43:16;;;;;;;11.07;6.93;;;15.00;81.80;;;;;;5031401;28;20447;-54
2021/04/27 08:45:44;;;;;;;10.93;6.80;;;15.60;81.00;;;;;;5031076;28;20471;-54
2021/04/27 08:48:12;;;;;;;9.53;6.70;;;15.90;78.20;;;;;;5030865;28;20464;-53
2021/04/27 08:50:39;;;;;;;9.70;7.67;;;15.50;81.30;;;;;;5031453;28;20484;-54
2021/04/27 08:53:07;;;;;;;9.73;8.30;;;16.00;79.90;;;;;;5030419;28;20452;-54
2021/04/27 08:55:35;;;;;;;10.90;6.93;;;16.90;82.90;;;;;;5028204;28;20444;-54
2021/04/27 08:58:04;;;;;;;8.77;6.87;;;17.80;76.30;;;;;;5021631;28;20476;-55
2021/04/27 09:00:31;;;;;;;9.60;7.77;;;18.60;74.40;;;;;;5031602;28;20444;-54
2021/04/27 09:02:59;;;;;;;13.50;7.33;;;17.20;78.00;;;;;;5031696;28;20451;-55
2021/04/27 09:05:27;;;;;;;10.00;6.70;;;16.90;75.40;;;;;;5031214;28;20449;-54
2021/04/27 09:07:55;;;;;;;11.27;7.30;;;15.60;81.30;;;;;;5031080;28;20981;-54
2021/04/27 09:10:26;;;;;;;10.17;7.47;;;15.00;80.40;;;;;;5031041;28;20499;-53
2021/04/27 09:12:55;;;;;;;10.70;7.57;;;14.50;82.40;;;;;;5031617;28;20453;-54
2021/04/27 09:15:27;;;;;;;7.90;7.10;;;14.80;85.20;;;;;;5031421;28;21021;-54
2021/04/27 09:17:54;;;;;;;11.10;7.37;;;15.50;82.20;;;;;;5030944;28;20885;-54
2021/04/27 09:20:21;;;;;;;10.47;7.70;;;16.50;77.90;;;;;;5030775;28;20467;-54
2021/04/27 09:22:48;;;;;;;13.13;8.03;;;16.60;80.00;;;;;;5031213;28;20546;-53
2021/04/27 09:25:21;;;;;;;9.40;7.60;;;15.30;80.80;;;;;;5031174;28;20452;-54
2021/04/27 09:27:48;;;;;;;12.30;7.90;;;16.00;78.80;;;;;;5031078;28;20469;-53
2021/04/27 09:30:19;;;;;;;10.40;8.10;;;15.00;81.90;;;;;;5033372;28;20484;-54
2021/04/27 09:32:56;;;;;;;11.17;7.70;;;15.20;80.60;;;;;;5040431;28;20445;-54
2021/04/27 09:35:28;;;;;;;10.50;8.30;;;15.60;79.80;;;;;;5030051;28;20984;-54
2021/04/27 09:38:13;;;;;;;12.30;8.37;;;15.80;83.90;;;;;;5030900;28;20460;-54
2021/04/27 09:40:54;;;;;;;10.37;7.67;;;15.50;80.20;;;;;;5030851;28;20935;-54
2021/04/27 09:43:23;;;;;;;11.17;8.50;;;15.50;80.70;;;;;;5031017;28;20449;-54
2021/04/27 09:45:52;;;;;;;11.73;8.20;;;16.20;77.10;;;;;;5030773;28;21165;-54
2021/04/27 09:48:33;;;;;;;12.90;8.57;;;16.30;78.70;;;;;;5030398;28;20965;-54
2021/04/27 09:51:22;;;;;;;11.50;8.50;;;16.80;79.00;;;;;;5031063;28;20480;-54
2021/04/27 09:53:51;;;;;;;12.90;8.60;;;17.00;79.50;;;;;;5030865;28;20445;-54
2021/04/27 09:56:39;;;;;;;16.47;9.00;;;16.30;79.50;;;;;;5030698;28;20839;-54
2021/04/27 09:59:09;;;;;;;11.90;8.83;;;16.30;79.60;;;;;;5037717;28;20471;-54
2021/04/27 10:01:37;;;;;;;10.03;8.50;;;16.70;77.50;;;;;;5035189;28;20507;-53
2021/04/27 10:04:05;;;;;;;10.20;8.40;;;16.60;80.30;;;;;;5030606;28;20448;-54
2021/04/27 10:06:31;;;;;;;12.23;8.67;;;16.30;80.20;;;;;;5034545;28;20969;-53
2021/04/27 10:08:58;;;;;;;13.43;8.20;;;14.90;80.50;;;;;;5034306;28;20472;-54
2021/04/27 10:11:26;;;;;;;13.80;9.10;;;14.50;80.70;;;;;;5034401;28;20484;-53
2021/04/27 10:13:53;;;;;;;11.27;8.70;;;14.80;82.10;;;;;;5034375;28;20452;-54
2021/04/27 10:16:20;;;;;;;12.73;9.67;;;15.70;79.40;;;;;;5034411;28;20958;-54
2021/04/27 10:18:48;;;;;;;10.63;8.97;;;15.50;79.30;;;;;;5033775;28;20489;-54
2021/04/27 10:21:15;;;;;;;10.90;8.30;;;15.50;83.20;;;;;;5034235;28;20826;-53
2021/04/27 10:23:42;;;;;;;14.00;8.87;;;15.80;82.90;;;;;;5034507;28;20453;-54
2021/04/27 10:26:09;;;;;;;14.70;9.07;;;15.80;84.40;;;;;;5034242;28;20455;-54
2021/04/27 10:29:01;;;;;;;19.30;10.50;;;15.90;81.40;;;;;;5033958;28;20472;-53
2021/04/27 10:31:29;;;;;;;13.40;8.70;;;15.70;84.00;;;;;;5017342;28;20535;-54
2021/04/27 10:34:03;;;;;;;11.70;8.70;;;16.20;83.00;;;;;;5014791;28;20453;-54
2021/04/27 10:36:30;;;;;;;14.10;9.50;;;16.90;82.10;;;;;;5034026;28;20479;-54
2021/04/27 10:38:59;;;;;;;13.37;9.03;;;16.10;82.20;;;;;;5033656;28;20526;-54
2021/04/27 10:41:53;;;;;;;12.00;9.13;;;16.20;81.10;;;;;;5034045;28;20444;-54
2021/04/27 10:44:21;;;;;;;11.77;8.97;;;16.30;84.50;;;;;;5033886;28;20449;-54
2021/04/27 10:46:51;;;;;;;10.37;8.83;;;16.50;80.00;;;;;;5034014;28;20475;-55
2021/04/27 10:49:35;;;;;;;11.10;8.93;;;17.20;78.00;;;;;;5033573;28;20521;-54
2021/04/27 10:52:05;;;;;;;14.40;9.20;;;18.00;81.60;;;;;;5030859;28;20476;-54
2021/04/27 10:54:34;;;;;;;14.80;10.65;;;17.70;83.60;;;;;;5016123;28;20451;-54
2021/04/27 10:57:16;;;;;;;12.00;9.43;;;16.40;85.30;;;;;;5013818;28;20210;-54
2021/04/27 10:59:52;;;;;;;11.73;9.90;;;16.40;82.00;;;;;;5013389;28;20464;-54
2021/04/27 11:02:23;;;;;;;12.87;10.17;;;16.60;83.80;;;;;;5013452;28;20445;-54
2021/04/27 11:04:52;;;;;;;13.30;9.90;;;17.00;78.20;;;;;;5013311;28;20446;-54
2021/04/27 11:07:32;;;;;;;16.83;10.30;;;17.10;79.40;;;;;;5018752;28;20958;-54
2021/04/27 11:10:26;;;;;;;12.80;9.40;;;16.20;83.10;;;;;;5033293;28;20460;-54
2021/04/27 11:12:55;;;;;;;12.93;9.23;;;16.40;86.20;;;;;;4997724;28;20511;-53
2021/04/27 11:15:24;;;;;;;13.13;9.20;;;16.60;82.70;;;;;;5032894;28;20460;-54
2021/04/27 11:18:03;;;;;;;13.27;9.03;;;17.30;85.50;;;;;;5031744;28;20480;-54
2021/04/27 11:20:54;;;;;;;13.87;9.53;;;17.30;81.30;;;;;;5032896;28;20436;-54
2021/04/27 11:23:41;;;;;;;14.23;9.57;;;17.20;86.50;;;;;;5032502;28;20449;-54
2021/04/27 11:26:42;;;;;;;11.90;9.13;;;17.20;86.60;;;;;;5032854;28;20510;-54
2021/04/27 11:29:18;;;;;;;12.03;9.97;;;16.90;87.70;;;;;;5032381;28;20815;-54
2021/04/27 11:32:17;;;;;;;13.77;9.80;;;16.80;88.40;;;;;;5032441;28;20490;-53
2021/04/27 11:34:59;;;;;;;14.07;8.80;;;16.90;88.20;;;;;;5032513;28;20452;-53
2021/04/27 11:37:29;;;;;;;10.53;8.60;;;17.10;87.40;;;;;;5032235;28;20464;-53
2021/04/27 11:39:57;;;;;;;15.50;10.97;;;17.60;83.10;;;;;;5032095;28;20444;-54
2021/04/27 11:42:31;;;;;;;16.50;10.10;;;17.80;82.10;;;;;;5032066;28;20444;-54
2021/04/27 11:45:01;;;;;;;14.10;10.20;;;17.30;88.00;;;;;;5032429;28;20440;-54
2021/04/27 11:47:34;;;;;;;16.97;9.70;;;16.70;83.30;;;;;;5032684;28;21044;-53
2021/04/27 11:50:02;;;;;;;11.80;9.60;;;16.80;85.60;;;;;;5032172;28;20444;-54
2021/04/27 11:53:00;;;;;;;15.37;10.53;;;17.20;82.00;;;;;;5032318;28;20450;-54
2021/04/27 11:55:30;;;;;;;19.80;9.80;;;17.00;85.20;;;;;;5031906;28;20449;-53
2021/04/27 11:58:00;;;;;;;14.23;9.87;;;16.80;84.20;;;;;;5029311;28;20468;-53
2021/04/27 12:00:34;;;;;;;15.90;9.90;;;16.90;89.00;;;;;;5032436;28;20451;-54
2021/04/27 12:03:17;;;;;;;13.30;9.50;;;17.20;88.20;;;;;;5032136;28;20489;-54
2021/04/27 12:05:44;;;;;;;16.13;10.17;;;17.10;84.70;;;;;;5032147;28;20498;-53
2021/04/27 12:08:20;;;;;;;16.60;10.20;;;16.60;86.60;;;;;;5031925;28;20526;-54
2021/04/27 12:10:48;;;;;;;14.60;9.03;;;16.30;83.60;;;;;;5032064;28;20522;-53
2021/04/27 12:13:19;;;;;;;15.80;10.20;;;16.50;88.60;;;;;;5031997;28;20448;-53
2021/04/27 12:16:01;;;;;;;14.67;9.67;;;17.10;88.60;;;;;;5031687;28;20851;-54
2021/04/27 12:18:27;;;;;;;15.13;9.80;;;17.60;83.70;;;;;;5031798;28;20614;-54
2021/04/27 12:20:54;;;;;;;15.53;10.30;;;17.40;84.20;;;;;;5032098;28;20449;-53
2021/04/27 12:23:23;;;;;;;17.93;10.40;;;17.40;86.50;;;;;;5031926;28;20441;-54
2021/04/27 12:25:50;;;;;;;14.40;9.17;;;17.50;84.90;;;;;;5031907;28;20464;-54
2021/04/27 12:28:17;;;;;;;16.57;9.40;;;17.60;81.90;;;;;;5030983;28;21035;-54
2021/04/27 12:30:46;;;;;;;13.63;9.53;;;17.80;83.90;;;;;;5032047;28;20484;-53
2021/04/27 12:33:16;;;;;;;16.23;9.43;;;17.20;84.90;;;;;;5032072;28;20782;-54
2021/04/27 12:35:43;;;;;;;15.13;9.07;;;17.50;86.80;;;;;;5031819;28;20459;-54
2021/04/27 12:38:11;;;;;;;13.00;9.10;;;17.90;82.80;;;;;;5031616;28;20472;-54
2021/04/27 12:40:40;;;;;;;13.00;9.63;;;18.30;80.70;;;;;;5031588;28;20833;-54
2021/04/27 12:43:08;;;;;;;19.17;10.50;;;18.40;80.80;;;;;;5031260;28;20453;-54
2021/04/27 12:45:44;;;;;;;15.00;8.70;;;18.50;79.20;;;;;;5031603;28;20805;-54
2021/04/27 12:48:11;;;;;;;11.00;8.70;;;18.70;81.70;;;;;;5031460;28;20472;-54
2021/04/27 12:50:51;;;;;;;16.87;9.43;;;18.70;81.30;;;;;;5031440;28;21006;-53
2021/04/27 12:53:19;;;;;;;14.07;9.57;;;18.80;79.60;;;;;;5031236;28;20544;-54